createdAt,value
2023-04-21T00:00:40.565Z,18.70
2023-04-21T00:05:44.193Z,18.60
2023-04-21T00:10:48.188Z,18.60
2023-04-21T00:15:52.855Z,18.60
2023-04-21T00:20:56.362Z,18.50
2023-04-21T00:26:02.690Z,18.50
2023-04-21T00:31:07.923Z,18.40
2023-04-21T00:36:11.200Z,18.50
2023-04-21T00:41:14.387Z,18.40
2023-04-21T00:46:18.955Z,18.40
2023-04-21T00:51:22.720Z,18.40
2023-04-21T00:56:27.615Z,18.30
2023-04-21T01:01:34.316Z,18.30
2023-04-21T01:06:38.328Z,18.30
2023-04-21T01:11:41.797Z,18.30
2023-04-21T01:16:46.820Z,18.20
2023-04-21T01:21:51.603Z,18.10
2023-04-21T01:26:54.926Z,18.10
2023-04-21T01:31:58.175Z,18.10
2023-04-21T01:37:03.099Z,18.00
2023-04-21T01:42:06.466Z,18.00
2023-04-21T01:47:09.748Z,17.90
2023-04-21T01:52:14.451Z,17.90
2023-04-21T01:57:18.399Z,17.80
2023-04-21T02:02:21.947Z,17.80
2023-04-21T02:07:28.795Z,17.80
2023-04-21T02:12:32.013Z,17.70
2023-04-21T02:17:35.329Z,17.70
2023-04-21T02:22:40.323Z,17.70
2023-04-21T02:27:43.520Z,17.70
2023-04-21T02:32:46.907Z,17.70
2023-04-21T02:37:51.646Z,17.70
2023-04-21T02:42:54.797Z,17.70
2023-04-21T02:47:58.966Z,17.70
2023-04-21T02:53:03.646Z,17.70
2023-04-21T02:58:07.264Z,17.70
2023-04-21T03:03:11.036Z,17.70
2023-04-21T03:08:15.752Z,17.70
2023-04-21T03:13:19.126Z,17.70
2023-04-21T03:18:22.536Z,17.80
2023-04-21T03:23:28.466Z,17.70
2023-04-21T03:28:31.674Z,17.70
2023-04-21T03:33:34.934Z,17.70
2023-04-21T03:38:39.658Z,17.60
2023-04-21T03:43:42.972Z,17.60
2023-04-21T03:48:46.975Z,17.60
2023-04-21T03:53:51.641Z,17.60
2023-04-21T03:58:54.946Z,17.50
2023-04-21T04:03:58.390Z,17.50
2023-04-21T04:09:05.474Z,17.40
2023-04-21T04:14:08.804Z,17.40
2023-04-21T04:19:12.691Z,17.30
2023-04-21T04:24:17.247Z,17.30
2023-04-21T04:29:20.792Z,17.30
2023-04-21T04:34:24.566Z,17.20
2023-04-21T04:39:29.089Z,17.20
2023-04-21T04:44:34.060Z,17.10
2023-04-21T04:49:38.107Z,17.10
2023-04-21T04:54:42.737Z,17.10
2023-04-21T04:59:46.559Z,17.00
2023-04-21T05:04:50.431Z,17.00
2023-04-21T05:09:55.443Z,17.00
2023-04-21T05:14:58.904Z,17.00
2023-04-21T05:20:02.241Z,16.90
2023-04-21T05:25:07.669Z,17.00
2023-04-21T05:30:11.919Z,17.00
2023-04-21T05:35:15.207Z,17.00
2023-04-21T05:40:19.994Z,17.10
2023-04-21T05:45:23.255Z,17.10
2023-04-21T05:50:28.709Z,17.20
2023-04-21T05:55:35.732Z,17.30
2023-04-21T06:00:39.078Z,17.40
2023-04-21T06:05:42.353Z,17.50
2023-04-21T06:10:47.266Z,17.50
2023-04-21T06:15:50.556Z,17.60
2023-04-21T06:20:54.967Z,17.70
2023-04-21T06:26:04.986Z,17.80
2023-04-21T06:31:09.948Z,17.90
2023-04-21T06:36:13.420Z,18.00
2023-04-21T06:41:18.872Z,18.10
2023-04-21T06:46:22.324Z,18.30
2023-04-21T06:51:25.661Z,18.40
2023-04-21T06:56:30.580Z,18.50
2023-04-21T07:01:33.941Z,18.60
2023-04-21T07:06:37.386Z,18.80
2023-04-21T07:11:44.137Z,18.90
2023-04-21T07:16:47.437Z,19.00
2023-04-21T07:21:50.905Z,19.10
2023-04-21T07:26:55.485Z,19.30
2023-04-21T07:31:59.560Z,19.50
2023-04-21T07:37:02.948Z,19.70
2023-04-21T07:42:08.477Z,19.90
2023-04-21T07:47:11.723Z,20.10
2023-04-21T07:52:14.987Z,20.30
2023-04-21T07:57:19.666Z,20.60
2023-04-21T08:02:23.627Z,20.90
2023-04-21T08:07:26.957Z,21.10
2023-04-21T08:12:31.609Z,21.50
2023-04-21T08:17:35.041Z,21.70
2023-04-21T08:22:38.466Z,22.00
2023-04-21T08:27:43.955Z,22.20
2023-04-21T08:32:47.315Z,22.40
2023-04-21T08:37:51.602Z,22.70
2023-04-21T08:42:58.824Z,22.90
2023-04-21T08:48:04.642Z,23.10
2023-04-21T08:53:07.979Z,23.30
2023-04-21T08:58:13.651Z,23.50
2023-04-21T09:03:26.205Z,23.70
2023-04-21T09:08:30.866Z,23.90
2023-04-21T09:13:37.075Z,24.10
2023-04-21T09:18:40.729Z,24.20
2023-04-21T09:23:45.354Z,24.50
2023-04-21T09:28:51.468Z,24.70
2023-04-21T09:33:59.327Z,25.00
2023-04-21T09:44:13.490Z,25.30
2023-04-21T09:49:19.166Z,25.50
2023-04-21T09:59:35.323Z,25.70
2023-04-21T10:04:39.610Z,25.80
2023-04-21T10:09:47.311Z,26.00
2023-04-21T10:14:54.186Z,26.20
2023-04-21T10:19:59.355Z,26.40
2023-04-21T10:25:04.461Z,26.60
2023-04-21T10:30:22.850Z,26.80
2023-04-21T10:35:26.414Z,27.10
2023-04-21T10:45:47.192Z,27.60
2023-04-21T10:50:50.346Z,27.80
2023-04-21T10:55:54.458Z,28.10
2023-04-21T11:00:59.286Z,28.40
2023-04-21T11:06:15.939Z,28.70
2023-04-21T11:11:24.307Z,28.90
2023-04-21T11:16:29.078Z,29.20
2023-04-21T11:21:33.651Z,29.40
2023-04-21T11:26:38.549Z,29.60
2023-04-21T11:31:45.539Z,29.70
2023-04-21T20:40:53.836Z,23.10
2023-04-21T20:45:57.583Z,23.00
2023-04-21T20:51:01.175Z,22.80
2023-04-21T20:56:06.228Z,22.60
2023-04-21T21:01:09.648Z,22.60
2023-04-21T21:06:13.141Z,22.40
2023-04-21T21:11:17.718Z,22.40
2023-04-21T21:16:21.088Z,22.20
2023-04-21T21:21:25.641Z,22.20
2023-04-21T21:26:31.123Z,22.20
2023-04-21T21:31:34.380Z,22.10
2023-04-21T21:36:37.778Z,22.10
2023-04-21T21:41:42.428Z,22.00
2023-04-21T21:46:46.000Z,21.90
2023-04-21T21:51:49.833Z,21.90
2023-04-21T21:56:54.860Z,21.80
2023-04-21T22:01:58.309Z,21.70
2023-04-21T22:07:01.795Z,21.60
2023-04-21T22:22:15.188Z,21.60
2023-04-21T22:37:27.692Z,21.60
2023-04-21T22:42:32.380Z,21.60
2023-04-21T22:47:35.956Z,21.40
2023-04-21T22:52:39.215Z,21.30
2023-04-21T22:57:44.280Z,21.10
2023-04-21T23:02:47.785Z,21.10
2023-04-21T23:07:51.482Z,21.10
2023-04-21T23:12:56.294Z,20.90
2023-04-21T23:17:59.620Z,20.80
2023-04-21T23:23:03.026Z,20.70
2023-04-21T23:28:07.705Z,20.60
2023-04-21T23:33:11.115Z,20.60
2023-04-21T23:38:14.481Z,20.50
2023-04-21T23:43:19.113Z,20.30
2023-04-21T23:48:22.263Z,20.20
2023-04-21T23:53:25.740Z,20.30
2023-04-21T23:58:30.376Z,20.30
